sensor_id;sensor_type;location;lat;lon;timestamp;pressure;altitude;pressure_sealevel;temperature;humidity
13836;BME280;6988;52.614;13.500;2023-04-29T00:01:13;54370.81;;;-143.77;76.63
13836;BME280;6988;52.614;13.500;2023-04-29T00:06:05;54350.28;;;-143.77;76.72
13836;BME280;6988;52.614;13.500;2023-04-29T00:10:57;54337.97;;;-143.77;77.39
13836;BME280;6988;52.614;13.500;2023-04-29T00:15:49;54364.66;;;-143.77;77.24
13836;BME280;6988;52.614;13.500;2023-04-29T00:20:42;54340.03;;;-143.77;77.75
13836;BME280;6988;52.614;13.500;2023-04-29T00:25:34;54352.34;;;-143.77;77.63
13836;BME280;6988;52.614;13.500;2023-04-29T00:30:27;54356.44;;;-143.77;77.47
13836;BME280;6988;52.614;13.500;2023-04-29T00:35:19;54360.53;;;-143.77;77.80
13836;BME280;6988;52.614;13.500;2023-04-29T00:40:13;54360.53;;;-143.77;78.08
13836;BME280;6988;52.614;13.500;2023-04-29T00:45:08;54389.28;;;-143.77;77.86
13836;BME280;6988;52.614;13.500;2023-04-29T00:50:02;54366.69;;;-143.77;77.86
13836;BME280;6988;52.614;13.500;2023-04-29T00:54:55;54362.59;;;-143.77;78.11
13836;BME280;6988;52.614;13.500;2023-04-29T00:59:49;54385.16;;;-143.77;78.17
13836;BME280;6988;52.614;13.500;2023-04-29T01:04:41;54393.38;;;-143.77;77.84
13836;BME280;6988;52.614;13.500;2023-04-29T01:09:52;54362.59;;;-143.77;78.55
13836;BME280;6988;52.614;13.500;2023-04-29T01:14:53;54376.97;;;-143.77;78.74
13836;BME280;6988;52.614;13.500;2023-04-29T01:19:54;54352.34;;;-143.77;79.16
13836;BME280;6988;52.614;13.500;2023-04-29T01:24:49;54360.53;;;-143.77;80.14
13836;BME280;6988;52.614;13.500;2023-04-29T01:29:52;54397.47;;;-143.77;79.80
13836;BME280;6988;52.614;13.500;2023-04-29T01:34:56;54376.97;;;-143.77;79.75
13836;BME280;6988;52.614;13.500;2023-04-29T01:40:08;54352.34;;;-143.77;79.98
13836;BME280;6988;52.614;13.500;2023-04-29T01:45:14;54364.66;;;-143.77;79.89
13836;BME280;6988;52.614;13.500;2023-04-29T01:50:10;54368.75;;;-143.77;79.76
13836;BME280;6988;52.614;13.500;2023-04-29T01:55:05;54389.28;;;-143.77;80.21
13836;BME280;6988;52.614;13.500;2023-04-29T02:00:07;54356.44;;;-143.77;80.24
13836;BME280;6988;52.614;13.500;2023-04-29T02:05:09;54364.66;;;-143.77;80.59
13836;BME280;6988;52.614;13.500;2023-04-29T02:10:08;54352.34;;;-143.77;81.18
13836;BME280;6988;52.614;13.500;2023-04-29T02:15:04;54385.16;;;-143.77;81.79
13836;BME280;6988;52.614;13.500;2023-04-29T02:19:56;54415.94;;;-143.77;82.83
13836;BME280;6988;52.614;13.500;2023-04-29T02:24:48;54387.22;;;-143.77;82.67
13836;BME280;6988;52.614;13.500;2023-04-29T02:29:41;54438.50;;;-143.77;82.91
13836;BME280;6988;52.614;13.500;2023-04-29T02:34:33;54391.31;;;-143.77;82.56
13836;BME280;6988;52.614;13.500;2023-04-29T02:39:25;54391.31;;;-143.77;82.75
13836;BME280;6988;52.614;13.500;2023-04-29T02:44:19;54389.28;;;-143.77;82.96
13836;BME280;6988;52.614;13.500;2023-04-29T02:49:13;54372.84;;;-143.77;82.54
13836;BME280;6988;52.614;13.500;2023-04-29T02:54:04;54413.88;;;-143.77;82.75
13836;BME280;6988;52.614;13.500;2023-04-29T02:58:56;54405.69;;;-143.77;83.52
13836;BME280;6988;52.614;13.500;2023-04-29T03:03:48;54385.16;;;-143.77;83.33
13836;BME280;6988;52.614;13.500;2023-04-29T03:08:42;54434.41;;;-143.77;84.08
13836;BME280;6988;52.614;13.500;2023-04-29T03:13:34;54354.38;;;-143.77;84.74
13836;BME280;6988;52.614;13.500;2023-04-29T03:18:27;54389.28;;;-143.77;84.83
13836;BME280;6988;52.614;13.500;2023-04-29T03:23:19;54403.63;;;-143.77;84.85
13836;BME280;6988;52.614;13.500;2023-04-29T03:28:13;54418.00;;;-143.77;85.15
13836;BME280;6988;52.614;13.500;2023-04-29T03:33:06;54413.88;;;-143.77;85.20
13836;BME280;6988;52.614;13.500;2023-04-29T03:37:58;54407.72;;;-143.77;85.03
13836;BME280;6988;52.614;13.500;2023-04-29T03:42:54;54385.16;;;-143.77;84.96
13836;BME280;6988;52.614;13.500;2023-04-29T03:47:48;54360.53;;;-143.77;84.88
13836;BME280;6988;52.614;13.500;2023-04-29T03:52:40;54372.84;;;-143.77;85.12
13836;BME280;6988;52.614;13.500;2023-04-29T03:57:35;54376.97;;;-143.77;84.88
13836;BME280;6988;52.614;13.500;2023-04-29T04:02:28;54368.75;;;-143.77;84.79
13836;BME280;6988;52.614;13.500;2023-04-29T04:07:21;54376.97;;;-143.77;84.94
13836;BME280;6988;52.614;13.500;2023-04-29T04:12:32;54389.28;;;-143.77;85.13
13836;BME280;6988;52.614;13.500;2023-04-29T04:17:24;54360.53;;;-143.77;85.20
13836;BME280;6988;52.614;13.500;2023-04-29T04:22:16;54391.31;;;-143.77;85.19
13836;BME280;6988;52.614;13.500;2023-04-29T04:27:23;54381.06;;;-143.77;85.12
13836;BME280;6988;52.614;13.500;2023-04-29T04:32:15;54364.66;;;-143.77;85.12
13836;BME280;6988;52.614;13.500;2023-04-29T04:37:08;54370.81;;;-143.77;85.31
13836;BME280;6988;52.614;13.500;2023-04-29T04:42:01;54395.44;;;-143.77;85.25
13836;BME280;6988;52.614;13.500;2023-04-29T04:46:57;54364.66;;;-143.77;85.24
13836;BME280;6988;52.614;13.500;2023-04-29T04:52:10;54358.50;;;-143.77;84.85
13836;BME280;6988;52.614;13.500;2023-04-29T04:57:03;54362.59;;;-143.77;84.79
13836;BME280;6988;52.614;13.500;2023-04-29T05:01:57;54381.06;;;-143.77;84.81
13836;BME280;6988;52.614;13.500;2023-04-29T05:06:49;54368.75;;;-143.77;85.15
13836;BME280;6988;52.614;13.500;2023-04-29T05:11:44;54337.97;;;-143.77;85.26
13836;BME280;6988;52.614;13.500;2023-04-29T05:16:39;54340.03;;;-143.77;85.71
13836;BME280;6988;52.614;13.500;2023-04-29T05:21:33;54340.03;;;-143.77;86.08
13836;BME280;6988;52.614;13.500;2023-04-29T05:26:26;54344.13;;;-143.77;86.45
13836;BME280;6988;52.614;13.500;2023-04-29T05:31:22;54348.22;;;-143.77;87.19
13836;BME280;6988;52.614;13.500;2023-04-29T05:36:14;54335.91;;;-143.77;87.50
13836;BME280;6988;52.614;13.500;2023-04-29T05:41:07;54298.97;;;-143.77;87.73
13836;BME280;6988;52.614;13.500;2023-04-29T05:46:16;54354.38;;;-143.77;88.36
13836;BME280;6988;52.614;13.500;2023-04-29T05:51:10;54309.25;;;-143.77;88.82
13836;BME280;6988;52.614;13.500;2023-04-29T05:56:03;54352.34;;;-143.77;89.52
13836;BME280;6988;52.614;13.500;2023-04-29T06:00:59;54317.44;;;-143.77;89.56
13836;BME280;6988;52.614;13.500;2023-04-29T06:05:53;54331.81;;;-143.77;89.92
13836;BME280;6988;52.614;13.500;2023-04-29T06:11:04;54319.50;;;-143.77;90.26
13836;BME280;6988;52.614;13.500;2023-04-29T06:15:56;54319.50;;;-143.77;90.42
13836;BME280;6988;52.614;13.500;2023-04-29T06:20:50;54309.25;;;-143.77;90.60
13836;BME280;6988;52.614;13.500;2023-04-29T06:25:42;54305.13;;;-143.77;90.41
13836;BME280;6988;52.614;13.500;2023-04-29T06:30:34;54327.72;;;-143.77;90.27
13836;BME280;6988;52.614;13.500;2023-04-29T06:35:26;54337.97;;;-143.77;90.35
13836;BME280;6988;52.614;13.500;2023-04-29T06:40:33;54354.38;;;-143.77;90.37
13836;BME280;6988;52.614;13.500;2023-04-29T06:45:33;54301.03;;;-143.77;90.05
13836;BME280;6988;52.614;13.500;2023-04-29T06:50:34;54309.25;;;-143.77;89.45
13836;BME280;6988;52.614;13.500;2023-04-29T06:55:26;54323.59;;;-143.77;89.15
13836;BME280;6988;52.614;13.500;2023-04-29T07:00:19;54298.97;;;-143.77;88.73
13836;BME280;6988;52.614;13.500;2023-04-29T07:05:12;54296.94;;;-143.77;88.57
13836;BME280;6988;52.614;13.500;2023-04-29T07:10:08;54315.41;;;-143.77;88.24
13836;BME280;6988;52.614;13.500;2023-04-29T07:15:02;54321.56;;;-143.77;88.37
13836;BME280;6988;52.614;13.500;2023-04-29T07:19:55;54296.94;;;-143.77;88.24
13836;BME280;6988;52.614;13.500;2023-04-29T07:24:47;54321.56;;;-143.77;87.69
13836;BME280;6988;52.614;13.500;2023-04-29T07:29:39;54327.72;;;-143.77;87.86
13836;BME280;6988;52.614;13.500;2023-04-29T07:34:31;54327.72;;;-143.77;87.66
13836;BME280;6988;52.614;13.500;2023-04-29T07:39:24;54294.88;;;-143.77;87.03
13836;BME280;6988;52.614;13.500;2023-04-29T07:44:19;54311.28;;;-143.77;86.72
13836;BME280;6988;52.614;13.500;2023-04-29T07:49:12;54307.19;;;-143.77;86.45
13836;BME280;6988;52.614;13.500;2023-04-29T07:54:04;54292.84;;;-143.77;86.65
13836;BME280;6988;52.614;13.500;2023-04-29T07:58:59;54331.81;;;-143.77;85.77
13836;BME280;6988;52.614;13.500;2023-04-29T08:03:51;54327.72;;;-143.77;85.73
13836;BME280;6988;52.614;13.500;2023-04-29T08:08:43;54313.34;;;-143.77;85.51
13836;BME280;6988;52.614;13.500;2023-04-29T08:13:35;54296.94;;;-143.77;84.73
13836;BME280;6988;52.614;13.500;2023-04-29T08:18:28;54356.44;;;-143.77;84.59
13836;BME280;6988;52.614;13.500;2023-04-29T08:23:20;54356.44;;;-143.77;84.07
13836;BME280;6988;52.614;13.500;2023-04-29T08:28:12;54315.41;;;-143.77;83.76
13836;BME280;6988;52.614;13.500;2023-04-29T08:33:04;54313.34;;;-143.77;84.13
13836;BME280;6988;52.614;13.500;2023-04-29T08:37:57;54319.50;;;-143.77;84.23
13836;BME280;6988;52.614;13.500;2023-04-29T08:42:50;54335.91;;;-143.77;84.27
13836;BME280;6988;52.614;13.500;2023-04-29T08:47:44;54335.91;;;-143.77;84.59
13836;BME280;6988;52.614;13.500;2023-04-29T08:52:37;54381.06;;;-143.77;84.04
13836;BME280;6988;52.614;13.500;2023-04-29T08:57:35;54368.75;;;-143.77;83.98
13836;BME280;6988;52.614;13.500;2023-04-29T09:02:29;54405.69;;;-143.77;83.94
13836;BME280;6988;52.614;13.500;2023-04-29T09:07:22;54368.75;;;-143.77;84.46
13836;BME280;6988;52.614;13.500;2023-04-29T09:12:14;54366.69;;;-143.77;84.00
13836;BME280;6988;52.614;13.500;2023-04-29T09:17:08;54379.00;;;-143.77;83.98
13836;BME280;6988;52.614;13.500;2023-04-29T09:22:01;54393.38;;;-143.77;83.73
13836;BME280;6988;52.614;13.500;2023-04-29T09:26:54;54389.28;;;-143.77;84.68
13836;BME280;6988;52.614;13.500;2023-04-29T09:31:49;54372.84;;;-143.77;84.90
13836;BME280;6988;52.614;13.500;2023-04-29T09:36:47;54333.88;;;-143.77;85.37
13836;BME280;6988;52.614;13.500;2023-04-29T09:46:56;54372.84;;;-143.77;85.31
13836;BME280;6988;52.614;13.500;2023-04-29T09:51:55;54344.13;;;-143.77;84.68
13836;BME280;6988;52.614;13.500;2023-04-29T09:56:49;54389.28;;;-143.77;84.69
13836;BME280;6988;52.614;13.500;2023-04-29T10:01:41;54368.75;;;-143.77;84.42
13836;BME280;6988;52.614;13.500;2023-04-29T10:06:34;54360.53;;;-143.77;84.22
13836;BME280;6988;52.614;13.500;2023-04-29T10:11:27;54337.97;;;-143.77;83.91
13836;BME280;6988;52.614;13.500;2023-04-29T10:16:27;54368.75;;;-143.77;82.91
13836;BME280;6988;52.614;13.500;2023-04-29T10:21:26;54340.03;;;-143.77;82.75
13836;BME280;6988;52.614;13.500;2023-04-29T10:26:19;54352.34;;;-143.77;82.58
13836;BME280;6988;52.614;13.500;2023-04-29T10:31:15;54344.13;;;-143.77;81.68
13836;BME280;6988;52.614;13.500;2023-04-29T10:36:08;54356.44;;;-143.77;81.33
13836;BME280;6988;52.614;13.500;2023-04-29T10:41:08;54319.50;;;-143.77;79.91
13836;BME280;6988;52.614;13.500;2023-04-29T10:46:19;54319.50;;;-143.77;79.38
13836;BME280;6988;52.614;13.500;2023-04-29T10:51:12;54278.47;;;-143.77;77.95
13836;BME280;6988;52.614;13.500;2023-04-29T10:56:18;54319.50;;;-143.77;77.88
13836;BME280;6988;52.614;13.500;2023-04-29T11:01:12;54214.88;;;-143.77;77.77
13836;BME280;6988;52.614;13.500;2023-04-29T11:06:09;54233.31;;;-143.77;77.16
13836;BME280;6988;52.614;13.500;2023-04-29T11:11:01;54233.31;;;-143.77;74.26
13836;BME280;6988;52.614;13.500;2023-04-29T11:16:02;54262.06;;;-143.77;72.64
13836;BME280;6988;52.614;13.500;2023-04-29T11:21:12;54262.06;;;-143.77;72.44
13836;BME280;6988;52.614;13.500;2023-04-29T11:26:04;54255.91;;;-143.77;72.36
13836;BME280;6988;52.614;13.500;2023-04-29T11:30:57;54245.63;;;-143.77;71.75
13836;BME280;6988;52.614;13.500;2023-04-29T11:35:49;54221.03;;;-143.77;72.96
13836;BME280;6988;52.614;13.500;2023-04-29T11:40:48;54225.13;;;-143.77;72.13
13836;BME280;6988;52.614;13.500;2023-04-29T11:45:40;54210.75;;;-143.77;69.11
13836;BME280;6988;52.614;13.500;2023-04-29T11:50:32;54266.16;;;-143.77;68.89
13836;BME280;6988;52.614;13.500;2023-04-29T11:55:26;54237.44;;;-143.77;68.72
13836;BME280;6988;52.614;13.500;2023-04-29T12:05:18;54229.22;;;-143.77;69.78
13836;BME280;6988;52.614;13.500;2023-04-29T12:10:11;54212.81;;;-143.77;68.59
13836;BME280;6988;52.614;13.500;2023-04-29T12:15:04;54241.53;;;-143.77;68.93
13836;BME280;6988;52.614;13.500;2023-04-29T12:19:59;54204.59;;;-143.77;68.58
13836;BME280;6988;52.614;13.500;2023-04-29T12:24:53;54204.59;;;-143.77;68.92
13836;BME280;6988;52.614;13.500;2023-04-29T12:29:45;54163.56;;;-143.77;69.09
13836;BME280;6988;52.614;13.500;2023-04-29T12:34:38;54194.34;;;-143.77;68.30
13836;BME280;6988;52.614;13.500;2023-04-29T12:39:31;54198.44;;;-143.77;67.57
13836;BME280;6988;52.614;13.500;2023-04-29T12:44:34;54179.97;;;-143.77;67.92
13836;BME280;6988;52.614;13.500;2023-04-29T12:49:27;54155.38;;;-143.77;68.59
13836;BME280;6988;52.614;13.500;2023-04-29T12:54:19;54182.03;;;-143.77;67.36
13836;BME280;6988;52.614;13.500;2023-04-29T12:59:11;54147.16;;;-143.77;66.45
13836;BME280;6988;52.614;13.500;2023-04-29T13:04:05;54163.56;;;-143.77;65.79
13836;BME280;6988;52.614;13.500;2023-04-29T13:08:58;54138.94;;;-143.77;65.64
13836;BME280;6988;52.614;13.500;2023-04-29T13:13:52;54136.91;;;-143.77;64.69
13836;BME280;6988;52.614;13.500;2023-04-29T13:18:44;54143.06;;;-143.77;64.78
13836;BME280;6988;52.614;13.500;2023-04-29T13:23:37;54126.63;;;-143.77;64.20
13836;BME280;6988;52.614;13.500;2023-04-29T13:28:29;54147.16;;;-143.77;64.06
13836;BME280;6988;52.614;13.500;2023-04-29T13:33:21;54118.44;;;-143.77;63.87
13836;BME280;6988;52.614;13.500;2023-04-29T13:38:13;54102.00;;;-143.77;62.84
13836;BME280;6988;52.614;13.500;2023-04-29T13:43:06;54128.69;;;-143.77;62.57
13836;BME280;6988;52.614;13.500;2023-04-29T13:47:58;54106.13;;;-143.77;61.50
13836;BME280;6988;52.614;13.500;2023-04-29T13:52:50;54118.44;;;-143.77;61.15
13836;BME280;6988;52.614;13.500;2023-04-29T13:57:42;54141.00;;;-143.77;61.80
13836;BME280;6988;52.614;13.500;2023-04-29T14:02:35;54099.97;;;-143.77;60.70
13836;BME280;6988;52.614;13.500;2023-04-29T14:07:27;54110.22;;;-143.77;60.59
13836;BME280;6988;52.614;13.500;2023-04-29T14:12:18;54130.75;;;-143.77;60.45
13836;BME280;6988;52.614;13.500;2023-04-29T14:17:10;54128.69;;;-143.77;60.44
13836;BME280;6988;52.614;13.500;2023-04-29T14:22:03;54171.78;;;-143.77;60.59
13836;BME280;6988;52.614;13.500;2023-04-29T14:26:55;54153.31;;;-143.77;61.93
13836;BME280;6988;52.614;13.500;2023-04-29T14:31:47;54122.53;;;-143.77;61.48
13836;BME280;6988;52.614;13.500;2023-04-29T14:36:39;54124.59;;;-143.77;61.17
13836;BME280;6988;52.614;13.500;2023-04-29T14:41:32;54085.59;;;-143.77;60.83
13836;BME280;6988;52.614;13.500;2023-04-29T14:46:24;54009.69;;;-143.77;60.57
13836;BME280;6988;52.614;13.500;2023-04-29T14:51:18;54093.81;;;-143.77;59.50
13836;BME280;6988;52.614;13.500;2023-04-29T14:56:10;54036.38;;;-143.77;59.49
13836;BME280;6988;52.614;13.500;2023-04-29T15:01:03;53929.69;;;-143.77;57.80
13836;BME280;6988;52.614;13.500;2023-04-29T15:05:55;54056.88;;;-143.77;55.59
13836;BME280;6988;52.614;13.500;2023-04-29T15:10:48;54087.66;;;-143.77;55.95
13836;BME280;6988;52.614;13.500;2023-04-29T15:15:42;54065.09;;;-143.77;57.34
13836;BME280;6988;52.614;13.500;2023-04-29T15:20:36;54112.28;;;-143.77;55.84
13836;BME280;6988;52.614;13.500;2023-04-29T15:25:28;54128.69;;;-143.77;56.58
13836;BME280;6988;52.614;13.500;2023-04-29T15:30:20;54138.94;;;-143.77;57.90
13836;BME280;6988;52.614;13.500;2023-04-29T15:35:12;54136.91;;;-143.77;56.93
13836;BME280;6988;52.614;13.500;2023-04-29T15:40:07;54163.56;;;-143.77;58.30
13836;BME280;6988;52.614;13.500;2023-04-29T15:44:59;54161.50;;;-143.77;58.02
13836;BME280;6988;52.614;13.500;2023-04-29T15:49:51;54159.47;;;-143.77;58.47
13836;BME280;6988;52.614;13.500;2023-04-29T15:54:45;54171.78;;;-143.77;58.88
13836;BME280;6988;52.614;13.500;2023-04-29T15:59:38;54145.09;;;-143.77;59.21
13836;BME280;6988;52.614;13.500;2023-04-29T16:04:30;54147.16;;;-143.77;59.29
13836;BME280;6988;52.614;13.500;2023-04-29T16:09:22;54175.88;;;-143.77;59.96
13836;BME280;6988;52.614;13.500;2023-04-29T16:14:14;54169.72;;;-143.77;59.69
13836;BME280;6988;52.614;13.500;2023-04-29T16:19:07;54184.09;;;-143.77;59.45
13836;BME280;6988;52.614;13.500;2023-04-29T16:23:59;54157.41;;;-143.77;60.25
13836;BME280;6988;52.614;13.500;2023-04-29T16:28:50;54179.97;;;-143.77;59.51
13836;BME280;6988;52.614;13.500;2023-04-29T16:33:42;54161.50;;;-143.77;60.16
13836;BME280;6988;52.614;13.500;2023-04-29T16:38:35;54198.44;;;-143.77;60.35
13836;BME280;6988;52.614;13.500;2023-04-29T16:43:27;54196.41;;;-143.77;59.45
13836;BME280;6988;52.614;13.500;2023-04-29T16:48:19;54179.97;;;-143.77;55.70
13836;BME280;6988;52.614;13.500;2023-04-29T16:53:11;54157.41;;;-143.77;53.14
13836;BME280;6988;52.614;13.500;2023-04-29T16:58:04;54190.25;;;-143.77;50.99
13836;BME280;6988;52.614;13.500;2023-04-29T17:02:56;54257.94;;;-143.77;47.40
13836;BME280;6988;52.614;13.500;2023-04-29T17:07:48;54210.75;;;-143.77;46.76
13836;BME280;6988;52.614;13.500;2023-04-29T17:12:40;54210.75;;;-143.77;46.63
13836;BME280;6988;52.614;13.500;2023-04-29T17:17:34;54218.97;;;-143.77;46.72
13836;BME280;6988;52.614;13.500;2023-04-29T17:22:26;54245.63;;;-143.77;47.79
13836;BME280;6988;52.614;13.500;2023-04-29T17:27:18;54243.59;;;-143.77;46.89
13836;BME280;6988;52.614;13.500;2023-04-29T17:32:10;54218.97;;;-143.77;47.96
13836;BME280;6988;52.614;13.500;2023-04-29T17:37:06;54233.31;;;-143.77;48.53
13836;BME280;6988;52.614;13.500;2023-04-29T17:41:58;54262.06;;;-143.77;49.53
13836;BME280;6988;52.614;13.500;2023-04-29T17:46:50;54266.16;;;-143.77;50.50
13836;BME280;6988;52.614;13.500;2023-04-29T17:51:42;54274.38;;;-143.77;51.72
13836;BME280;6988;52.614;13.500;2023-04-29T17:56:35;54286.69;;;-143.77;53.25
13836;BME280;6988;52.614;13.500;2023-04-29T18:01:27;54260.00;;;-143.77;53.52
13836;BME280;6988;52.614;13.500;2023-04-29T18:06:19;54270.25;;;-143.77;54.49
13836;BME280;6988;52.614;13.500;2023-04-29T18:11:11;54282.56;;;-143.77;55.76
13836;BME280;6988;52.614;13.500;2023-04-29T18:16:05;54311.28;;;-143.77;55.39
13836;BME280;6988;52.614;13.500;2023-04-29T18:20:57;54296.94;;;-143.77;56.15
13836;BME280;6988;52.614;13.500;2023-04-29T18:25:49;54288.72;;;-143.77;56.58
13836;BME280;6988;52.614;13.500;2023-04-29T18:30:41;54331.81;;;-143.77;57.11
13836;BME280;6988;52.614;13.500;2023-04-29T18:35:34;54325.66;;;-143.77;58.52
13836;BME280;6988;52.614;13.500;2023-04-29T18:40:26;54325.66;;;-143.77;58.93
13836;BME280;6988;52.614;13.500;2023-04-29T18:45:17;54325.66;;;-143.77;58.79
13836;BME280;6988;52.614;13.500;2023-04-29T18:50:10;54352.34;;;-143.77;59.80
13836;BME280;6988;52.614;13.500;2023-04-29T18:55:04;54327.72;;;-143.77;60.21
13836;BME280;6988;52.614;13.500;2023-04-29T18:59:56;54335.91;;;-143.77;60.43
13836;BME280;6988;52.614;13.500;2023-04-29T19:04:48;54350.28;;;-143.77;60.64
13836;BME280;6988;52.614;13.500;2023-04-29T19:09:39;54379.00;;;-143.77;60.57
13836;BME280;6988;52.614;13.500;2023-04-29T19:14:33;54389.28;;;-143.77;60.97
13836;BME280;6988;52.614;13.500;2023-04-29T19:19:25;54350.28;;;-143.77;61.46
13836;BME280;6988;52.614;13.500;2023-04-29T19:24:17;54393.38;;;-143.77;61.39
13836;BME280;6988;52.614;13.500;2023-04-29T19:29:09;54411.84;;;-143.77;62.44
13836;BME280;6988;52.614;13.500;2023-04-29T19:34:02;54454.94;;;-143.77;62.57
13836;BME280;6988;52.614;13.500;2023-04-29T19:38:54;54426.19;;;-143.77;63.36
13836;BME280;6988;52.614;13.500;2023-04-29T19:43:46;54405.69;;;-143.77;63.47
13836;BME280;6988;52.614;13.500;2023-04-29T19:48:38;54430.31;;;-143.77;63.58
13836;BME280;6988;52.614;13.500;2023-04-29T19:53:32;54413.88;;;-143.77;63.85
13836;BME280;6988;52.614;13.500;2023-04-29T19:58:23;54428.25;;;-143.77;64.03
13836;BME280;6988;52.614;13.500;2023-04-29T20:03:15;54450.81;;;-143.77;64.35
13836;BME280;6988;52.614;13.500;2023-04-29T20:08:07;54450.81;;;-143.77;64.37
13836;BME280;6988;52.614;13.500;2023-04-29T20:13:01;54440.56;;;-143.77;64.92
13836;BME280;6988;52.614;13.500;2023-04-29T20:17:53;54426.19;;;-143.77;64.95
13836;BME280;6988;52.614;13.500;2023-04-29T20:22:45;54418.00;;;-143.77;65.00
13836;BME280;6988;52.614;13.500;2023-04-29T20:27:37;54426.19;;;-143.77;65.52
13836;BME280;6988;52.614;13.500;2023-04-29T20:32:30;54463.13;;;-143.77;65.65
13836;BME280;6988;52.614;13.500;2023-04-29T20:37:22;54448.78;;;-143.77;65.99
13836;BME280;6988;52.614;13.500;2023-04-29T20:42:14;54440.56;;;-143.77;65.92
13836;BME280;6988;52.614;13.500;2023-04-29T20:47:06;54463.13;;;-143.77;66.15
13836;BME280;6988;52.614;13.500;2023-04-29T20:51:59;54420.03;;;-143.77;66.43
13836;BME280;6988;52.614;13.500;2023-04-29T20:56:51;54504.19;;;-143.77;66.73
13836;BME280;6988;52.614;13.500;2023-04-29T21:01:43;54475.44;;;-143.77;66.67
13836;BME280;6988;52.614;13.500;2023-04-29T21:06:35;54483.66;;;-143.77;66.72
13836;BME280;6988;52.614;13.500;2023-04-29T21:11:29;54485.72;;;-143.77;66.86
13836;BME280;6988;52.614;13.500;2023-04-29T21:16:21;54500.06;;;-143.77;67.11
13836;BME280;6988;52.614;13.500;2023-04-29T21:21:12;54479.56;;;-143.77;67.35
13836;BME280;6988;52.614;13.500;2023-04-29T21:26:04;54471.34;;;-143.77;66.95
13836;BME280;6988;52.614;13.500;2023-04-29T21:30:58;54477.50;;;-143.77;66.53
13836;BME280;6988;52.614;13.500;2023-04-29T21:35:50;54491.88;;;-143.77;66.30
13836;BME280;6988;52.614;13.500;2023-04-29T21:40:45;54516.50;;;-143.77;66.48
13836;BME280;6988;52.614;13.500;2023-04-29T22:04:12;54516.50;;;-143.77;67.01
13836;BME280;6988;52.614;13.500;2023-04-29T22:09:05;54506.22;;;-143.77;67.01
13836;BME280;6988;52.614;13.500;2023-04-29T22:13:59;54477.50;;;-143.77;66.85
13836;BME280;6988;52.614;13.500;2023-04-29T22:18:51;54522.63;;;-143.77;66.73
13836;BME280;6988;52.614;13.500;2023-04-29T22:23:45;54547.25;;;-143.77;67.43
13836;BME280;6988;52.614;13.500;2023-04-29T22:28:38;54512.38;;;-143.77;67.15
13836;BME280;6988;52.614;13.500;2023-04-29T22:33:30;54532.91;;;-143.77;67.68
13836;BME280;6988;52.614;13.500;2023-04-29T22:38:22;54504.19;;;-143.77;67.32
13836;BME280;6988;52.614;13.500;2023-04-29T22:43:15;54534.94;;;-143.77;67.71
13836;BME280;6988;52.614;13.500;2023-04-29T22:48:07;54526.75;;;-143.77;68.04
13836;BME280;6988;52.614;13.500;2023-04-29T22:52:59;54528.78;;;-143.77;67.72
13836;BME280;6988;52.614;13.500;2023-04-29T22:57:51;54506.22;;;-143.77;67.58
13836;BME280;6988;52.614;13.500;2023-04-29T23:02:44;54547.25;;;-143.77;67.23
13836;BME280;6988;52.614;13.500;2023-04-29T23:07:36;54541.09;;;-143.77;66.70
13836;BME280;6988;52.614;13.500;2023-04-29T23:12:28;54524.69;;;-143.77;66.10
13836;BME280;6988;52.614;13.500;2023-04-29T23:17:20;54545.22;;;-143.77;65.74
13836;BME280;6988;52.614;13.500;2023-04-29T23:22:13;54549.31;;;-143.77;66.03
13836;BME280;6988;52.614;13.500;2023-04-29T23:27:06;54532.91;;;-143.77;65.90
13836;BME280;6988;52.614;13.500;2023-04-29T23:31:58;54543.16;;;-143.77;66.05
13836;BME280;6988;52.614;13.500;2023-04-29T23:36:50;54545.22;;;-143.77;66.25
13836;BME280;6988;52.614;13.500;2023-04-29T23:41:43;54561.63;;;-143.77;66.26
13836;BME280;6988;52.614;13.500;2023-04-29T23:46:35;54567.78;;;-143.77;65.38
13836;BME280;6988;52.614;13.500;2023-04-29T23:51:26;54541.09;;;-143.77;65.42
13836;BME280;6988;52.614;13.500;2023-04-29T23:56:18;54590.34;;;-143.77;65.75
